createdAt,value
2018-06-27T00:01:27.098Z,13.00
2018-06-27T00:03:55.593Z,12.13
2018-06-27T00:06:24.081Z,12.43
2018-06-27T00:08:52.925Z,12.00
2018-06-27T00:11:21.449Z,12.50
2018-06-27T00:13:49.917Z,12.30
2018-06-27T00:16:18.499Z,12.67
2018-06-27T00:18:46.978Z,12.70
2018-06-27T00:21:15.885Z,12.50
2018-06-27T00:23:44.357Z,12.93
2018-06-27T00:26:12.845Z,13.83
2018-06-27T00:28:41.806Z,13.43
2018-06-27T00:31:10.329Z,12.40
2018-06-27T00:33:39.787Z,12.20
2018-06-27T00:36:08.302Z,13.73
2018-06-27T00:38:36.798Z,12.60
2018-06-27T00:41:05.717Z,14.27
2018-06-27T00:43:34.205Z,14.70
2018-06-27T00:46:02.676Z,12.60
2018-06-27T00:48:31.192Z,11.90
2018-06-27T00:50:59.686Z,12.87
2018-06-27T00:53:33.628Z,13.70
2018-06-27T00:56:02.119Z,13.17
2018-06-27T00:58:30.644Z,14.23
2018-06-27T01:00:59.305Z,12.83
2018-06-27T01:03:27.762Z,14.30
2018-06-27T01:05:56.248Z,14.73
2018-06-27T01:08:24.720Z,14.30
2018-06-27T01:10:53.233Z,13.00
2018-06-27T01:13:21.714Z,14.40
2018-06-27T01:15:50.194Z,12.43
2018-06-27T01:18:18.718Z,12.23
2018-06-27T01:20:47.205Z,12.20
2018-06-27T01:23:15.754Z,11.90
2018-06-27T01:25:44.252Z,11.77
2018-06-27T01:28:12.876Z,13.63
2018-06-27T01:30:41.340Z,14.50
2018-06-27T01:33:09.830Z,13.33
2018-06-27T01:35:38.754Z,12.10
2018-06-27T01:38:07.285Z,13.63
2018-06-27T01:40:35.751Z,13.30
2018-06-27T01:43:04.258Z,13.87
2018-06-27T01:45:32.734Z,14.37
2018-06-27T01:48:01.192Z,13.80
2018-06-27T01:50:30.019Z,12.80
2018-06-27T01:52:58.486Z,13.23
2018-06-27T01:55:26.954Z,15.53
2018-06-27T01:57:55.648Z,13.37
2018-06-27T02:00:24.117Z,13.43
2018-06-27T02:02:52.575Z,12.13
2018-06-27T02:05:21.096Z,13.63
2018-06-27T02:07:49.586Z,15.17
2018-06-27T02:10:18.053Z,13.50
2018-06-27T02:12:46.676Z,15.40
2018-06-27T02:15:15.145Z,16.00
2018-06-27T02:17:43.794Z,14.57
2018-06-27T02:20:12.329Z,16.20
2018-06-27T02:22:40.803Z,15.10
2018-06-27T02:25:09.454Z,15.47
2018-06-27T02:27:38.072Z,15.77
2018-06-27T02:30:06.798Z,15.73
2018-06-27T02:32:35.262Z,16.10
2018-06-27T02:35:03.957Z,16.83
2018-06-27T02:37:32.443Z,17.30
2018-06-27T02:40:00.945Z,17.00
2018-06-27T02:42:29.445Z,16.87
2018-06-27T02:44:57.969Z,16.27
2018-06-27T02:47:26.464Z,18.53
2018-06-27T02:49:54.988Z,19.30
2018-06-27T02:52:23.541Z,16.60
2018-06-27T02:54:52.122Z,17.53
2018-06-27T02:57:20.750Z,18.63
2018-06-27T02:59:49.220Z,18.57
2018-06-27T03:02:17.725Z,17.60
2018-06-27T03:04:46.197Z,19.03
2018-06-27T03:07:14.670Z,18.27
2018-06-27T03:09:43.172Z,17.80
2018-06-27T03:12:11.705Z,20.87
2018-06-27T03:14:40.173Z,19.87
2018-06-27T03:17:08.642Z,19.07
2018-06-27T03:19:37.233Z,18.93
2018-06-27T03:22:05.901Z,20.60
2018-06-27T03:24:34.370Z,20.43
2018-06-27T03:27:02.924Z,19.83
2018-06-27T03:29:31.411Z,20.17
2018-06-27T03:31:59.964Z,19.67
2018-06-27T03:34:28.469Z,17.93
2018-06-27T03:36:56.966Z,19.93
2018-06-27T03:39:25.890Z,19.90
2018-06-27T03:41:54.394Z,19.00
2018-06-27T03:44:22.931Z,21.60
2018-06-27T03:46:51.457Z,19.43
2018-06-27T03:49:19.962Z,19.27
2018-06-27T03:51:48.485Z,19.10
2018-06-27T03:54:16.962Z,19.23
2018-06-27T03:56:45.454Z,18.67
2018-06-27T03:59:13.932Z,19.17
2018-06-27T04:01:42.442Z,18.93
2018-06-27T04:04:10.946Z,17.83
2018-06-27T04:06:39.432Z,18.27
2018-06-27T04:09:11.462Z,18.83
2018-06-27T04:11:40.728Z,18.30
2018-06-27T04:14:09.353Z,15.50
2018-06-27T04:16:37.877Z,16.47
2018-06-27T04:19:06.381Z,16.87
2018-06-27T04:21:34.841Z,15.40
2018-06-27T04:24:03.336Z,14.73
2018-06-27T04:26:31.859Z,15.20
2018-06-27T04:29:00.382Z,14.63
2018-06-27T04:31:28.856Z,12.43
2018-06-27T04:33:58.084Z,14.20
2018-06-27T04:36:26.561Z,13.63
2018-06-27T04:38:55.170Z,14.47
2018-06-27T04:41:24.146Z,15.00
2018-06-27T04:43:52.639Z,14.43
2018-06-27T04:46:21.181Z,15.13
2018-06-27T04:48:49.653Z,13.80
2018-06-27T04:51:18.137Z,14.57
2018-06-27T04:53:46.630Z,14.50
2018-06-27T04:56:15.756Z,14.73
2018-06-27T04:58:44.243Z,13.97
2018-06-27T05:01:12.717Z,14.80
2018-06-27T05:03:41.266Z,13.57
2018-06-27T05:06:09.779Z,14.93
2018-06-27T05:08:38.295Z,12.40
2018-06-27T05:11:06.787Z,12.87
2018-06-27T05:13:35.353Z,12.40
2018-06-27T05:16:03.866Z,11.70
2018-06-27T05:18:32.325Z,12.90
2018-06-27T05:21:00.846Z,11.27
2018-06-27T05:23:29.337Z,14.00
2018-06-27T05:25:57.909Z,10.67
2018-06-27T05:28:26.401Z,10.47
2018-06-27T05:30:54.870Z,11.80
2018-06-27T05:33:23.385Z,9.60
2018-06-27T05:35:51.874Z,13.00
2018-06-27T05:38:20.389Z,11.60
2018-06-27T05:40:48.906Z,12.07
2018-06-27T05:43:17.381Z,11.97
2018-06-27T05:45:45.898Z,12.80
2018-06-27T05:48:14.493Z,13.30
2018-06-27T05:50:43.145Z,11.07
2018-06-27T05:53:11.770Z,12.10
2018-06-27T05:55:40.256Z,12.90
2018-06-27T05:58:08.846Z,12.87
2018-06-27T06:00:37.440Z,13.17
2018-06-27T06:03:05.921Z,13.60
2018-06-27T06:05:34.399Z,14.67
2018-06-27T06:08:02.894Z,14.70
2018-06-27T06:10:31.570Z,14.20
2018-06-27T06:13:00.097Z,13.30
2018-06-27T06:15:28.578Z,17.33
2018-06-27T06:17:57.045Z,18.83
2018-06-27T06:20:25.641Z,17.57
2018-06-27T06:22:54.133Z,17.27
2018-06-27T06:25:22.686Z,18.90
2018-06-27T06:27:51.154Z,20.70
2018-06-27T06:30:19.632Z,18.50
2018-06-27T06:32:48.153Z,20.37
2018-06-27T06:35:16.765Z,17.50
2018-06-27T06:37:45.290Z,19.30
2018-06-27T06:40:13.765Z,21.00
2018-06-27T06:42:42.333Z,18.93
2018-06-27T06:45:10.816Z,22.27
2018-06-27T06:47:39.305Z,19.50
2018-06-27T06:50:07.833Z,19.40
2018-06-27T06:52:36.502Z,17.67
2018-06-27T06:55:05.412Z,21.07
2018-06-27T06:57:33.996Z,22.03
2018-06-27T07:00:02.569Z,21.70
2018-06-27T07:02:31.061Z,20.03
2018-06-27T07:04:59.586Z,20.97
2018-06-27T07:07:28.050Z,20.57
2018-06-27T07:09:57.486Z,19.33
2018-06-27T07:12:26.005Z,22.27
2018-06-27T07:14:54.519Z,21.40
2018-06-27T07:17:23.117Z,19.87
2018-06-27T07:19:51.644Z,18.63
2018-06-27T07:22:20.101Z,14.17
2018-06-27T07:24:48.632Z,19.17
2018-06-27T07:27:17.138Z,17.10
2018-06-27T07:29:45.643Z,18.80
2018-06-27T07:32:14.143Z,18.50
2018-06-27T07:34:42.621Z,20.40
2018-06-27T07:37:11.273Z,22.50
2018-06-27T07:39:39.778Z,20.93
2018-06-27T07:42:09.469Z,19.80
2018-06-27T07:44:38.431Z,21.03
2018-06-27T07:47:07.240Z,20.10
2018-06-27T07:49:35.751Z,17.47
2018-06-27T07:52:05.042Z,20.60
2018-06-27T07:54:41.491Z,18.80
2018-06-27T07:57:12.242Z,17.73
2018-06-27T07:59:40.776Z,22.33
2018-06-27T08:02:09.630Z,20.87
2018-06-27T08:04:38.137Z,20.93
2018-06-27T08:07:06.665Z,18.87
2018-06-27T08:09:35.177Z,19.80
2018-06-27T08:12:03.681Z,20.40
2018-06-27T08:14:32.157Z,21.87
2018-06-27T08:17:01.059Z,16.70
2018-06-27T08:19:29.542Z,20.93
2018-06-27T08:21:58.078Z,19.87
2018-06-27T08:24:26.615Z,20.87
2018-06-27T08:26:55.162Z,22.43
2018-06-27T08:29:23.669Z,21.63
2018-06-27T08:31:52.164Z,20.70
2018-06-27T08:34:20.668Z,20.77
2018-06-27T08:36:49.198Z,20.37
2018-06-27T08:39:17.724Z,19.00
2018-06-27T08:41:46.254Z,20.03
2018-06-27T08:44:14.878Z,20.03
2018-06-27T08:46:43.365Z,18.70
2018-06-27T08:49:11.857Z,20.30
2018-06-27T08:51:40.377Z,21.13
2018-06-27T08:54:08.883Z,21.00
2018-06-27T08:56:37.413Z,21.03
2018-06-27T08:59:05.928Z,20.80
2018-06-27T09:01:34.531Z,22.07
2018-06-27T09:04:03.150Z,22.40
2018-06-27T09:06:31.669Z,19.97
2018-06-27T09:09:00.189Z,20.00
2018-06-27T09:11:28.666Z,21.30
2018-06-27T09:13:57.277Z,20.87
2018-06-27T09:16:25.765Z,22.53
2018-06-27T09:18:54.222Z,18.40
2018-06-27T09:21:22.749Z,21.03
2018-06-27T09:23:51.246Z,21.77
2018-06-27T09:26:19.738Z,21.77
2018-06-27T09:28:48.744Z,19.40
2018-06-27T09:31:17.345Z,20.10
2018-06-27T09:33:45.790Z,22.17
2018-06-27T09:36:14.289Z,23.23
2018-06-27T09:38:42.828Z,21.27
2018-06-27T09:41:11.319Z,21.13
2018-06-27T09:43:39.801Z,21.10
2018-06-27T09:46:08.416Z,22.00
2018-06-27T09:48:36.881Z,20.60
2018-06-27T09:51:05.850Z,20.90
2018-06-27T09:53:34.373Z,21.50
2018-06-27T09:56:02.858Z,22.03
2018-06-27T09:58:31.338Z,22.63
2018-06-27T10:00:59.914Z,20.77
2018-06-27T10:03:28.473Z,21.90
2018-06-27T10:05:57.091Z,18.57
2018-06-27T10:08:25.589Z,21.03
2018-06-27T10:10:54.073Z,20.83
2018-06-27T10:13:22.559Z,20.37
2018-06-27T10:15:51.068Z,19.90
2018-06-27T10:18:19.662Z,21.30
2018-06-27T10:20:48.152Z,19.20
2018-06-27T10:23:16.590Z,20.70
2018-06-27T10:25:45.080Z,19.90
2018-06-27T10:28:13.786Z,19.53
2018-06-27T10:30:42.237Z,18.90
2018-06-27T10:33:11.106Z,17.10
2018-06-27T10:35:39.609Z,20.63
2018-06-27T10:38:08.133Z,20.33
2018-06-27T10:40:36.637Z,20.60
2018-06-27T10:43:05.091Z,20.30
2018-06-27T10:45:33.533Z,17.70
2018-06-27T10:48:02.075Z,20.93
2018-06-27T10:50:30.521Z,20.53
2018-06-27T10:52:58.969Z,20.60
2018-06-27T10:55:27.417Z,20.10
2018-06-27T10:57:55.865Z,19.50
2018-06-27T11:00:24.319Z,22.83
2018-06-27T11:02:52.797Z,18.57
2018-06-27T11:05:21.333Z,18.80
2018-06-27T11:07:49.810Z,18.30
2018-06-27T11:10:18.251Z,19.50
2018-06-27T11:12:46.742Z,16.50
2018-06-27T11:15:15.182Z,18.70
2018-06-27T11:17:43.680Z,18.53
2018-06-27T11:20:12.154Z,18.60
2018-06-27T11:22:40.619Z,18.07
2018-06-27T11:25:09.092Z,17.80
2018-06-27T11:27:37.585Z,16.30
2018-06-27T11:30:06.128Z,17.60
2018-06-27T11:32:34.602Z,15.83
2018-06-27T11:35:03.257Z,16.77
2018-06-27T11:37:31.726Z,16.43
2018-06-27T11:40:00.190Z,16.30
2018-06-27T11:42:28.782Z,14.80
2018-06-27T11:44:57.261Z,15.10
2018-06-27T11:47:25.723Z,16.50
2018-06-27T11:49:54.298Z,14.00
2018-06-27T11:52:22.753Z,14.93
2018-06-27T11:54:56.599Z,14.50
2018-06-27T13:13:23.110Z,13.60
2018-06-27T13:15:51.681Z,11.30
2018-06-27T13:18:20.129Z,9.23
2018-06-27T13:20:48.615Z,9.67
2018-06-27T13:23:17.074Z,11.13
2018-06-27T13:25:45.598Z,9.87
2018-06-27T13:28:14.050Z,10.47
2018-06-27T13:30:42.506Z,9.73
2018-06-27T13:33:10.989Z,7.93
2018-06-27T13:35:39.507Z,9.23
2018-06-27T13:38:08.011Z,9.20
2018-06-27T13:40:36.523Z,7.80
2018-06-27T13:43:05.012Z,7.93
2018-06-27T13:45:34.169Z,9.27
2018-06-27T13:48:02.703Z,8.57
2018-06-27T13:50:31.142Z,7.73
2018-06-27T13:52:59.598Z,7.87
2018-06-27T13:55:28.127Z,9.27
2018-06-27T13:57:56.592Z,9.00
2018-06-27T14:00:25.061Z,8.37
2018-06-27T14:02:53.546Z,8.20
2018-06-27T14:05:22.031Z,7.60
2018-06-27T14:07:51.099Z,8.73
2018-06-27T14:10:19.598Z,8.13
2018-06-27T14:12:48.148Z,8.00
2018-06-27T14:15:16.597Z,6.97
2018-06-27T14:17:45.050Z,6.23
2018-06-27T14:20:13.648Z,5.70
2018-06-27T14:22:42.093Z,8.10
2018-06-27T14:25:10.564Z,6.60
2018-06-27T14:27:39.040Z,5.37
2018-06-27T14:30:07.581Z,6.10
2018-06-27T14:32:36.137Z,7.40
2018-06-27T14:35:05.068Z,6.53
2018-06-27T14:37:33.574Z,4.83
2018-06-27T14:40:02.076Z,5.23
2018-06-27T14:42:30.747Z,5.47
2018-06-27T14:44:59.213Z,5.90
2018-06-27T14:47:27.686Z,6.07
2018-06-27T14:49:56.182Z,6.70
2018-06-27T14:52:24.669Z,7.63
2018-06-27T14:54:53.132Z,6.60
2018-06-27T14:57:21.605Z,6.97
2018-06-27T14:59:50.803Z,5.63
2018-06-27T15:02:19.354Z,5.23
2018-06-27T15:04:47.967Z,5.43
2018-06-27T15:07:16.405Z,5.73
2018-06-27T15:09:44.877Z,5.87
2018-06-27T15:12:13.439Z,5.90
2018-06-27T15:14:41.978Z,5.30
2018-06-27T15:17:10.466Z,5.70
2018-06-27T15:19:39.052Z,4.23
2018-06-27T15:22:07.577Z,4.13
2018-06-27T15:24:36.065Z,5.00
2018-06-27T15:27:04.572Z,4.30
2018-06-27T15:29:33.069Z,4.50
2018-06-27T15:32:01.571Z,5.03
2018-06-27T15:34:30.103Z,4.40
2018-06-27T15:36:58.566Z,5.40
2018-06-27T15:39:27.094Z,4.73
2018-06-27T15:41:55.577Z,5.13
2018-06-27T15:44:24.053Z,5.50
2018-06-27T15:46:52.567Z,5.10
2018-06-27T15:49:21.052Z,4.70
2018-06-27T15:51:49.534Z,5.30
2018-06-27T15:54:18.054Z,5.17
2018-06-27T15:56:46.669Z,4.93
2018-06-27T15:59:15.126Z,5.50
2018-06-27T16:01:43.641Z,5.37
2018-06-27T16:04:12.206Z,5.07
2018-06-27T16:06:40.893Z,4.60
2018-06-27T16:09:10.145Z,5.30
2018-06-27T16:11:39.033Z,4.83
2018-06-27T16:14:07.562Z,4.77
2018-06-27T16:16:36.062Z,5.33
2018-06-27T16:19:04.633Z,5.73
2018-06-27T16:21:33.238Z,5.57
2018-06-27T16:24:01.733Z,4.93
2018-06-27T16:26:30.179Z,4.90
2018-06-27T16:28:58.653Z,5.33
2018-06-27T16:31:27.252Z,5.13
2018-06-27T16:33:55.697Z,5.03
2018-06-27T16:36:24.207Z,4.70
2018-06-27T16:38:52.751Z,6.07
2018-06-27T16:41:22.091Z,4.60
2018-06-27T16:43:50.809Z,5.43
2018-06-27T16:46:19.301Z,5.73
2018-06-27T16:48:47.848Z,4.93
2018-06-27T16:51:16.467Z,6.03
2018-06-27T16:53:44.882Z,5.50
2018-06-27T16:56:13.390Z,5.10
2018-06-27T16:58:42.669Z,5.40
2018-06-27T17:01:11.244Z,5.40
2018-06-27T17:03:39.722Z,5.83
2018-06-27T17:06:08.317Z,5.17
2018-06-27T17:08:36.782Z,6.17
2018-06-27T17:11:05.399Z,5.23
2018-06-27T17:13:33.881Z,6.30
2018-06-27T17:16:02.345Z,6.10
2018-06-27T17:18:30.824Z,6.87
2018-06-27T17:20:59.567Z,6.30
2018-06-27T17:23:28.043Z,6.53
2018-06-27T17:25:56.599Z,6.70
2018-06-27T17:28:25.135Z,6.30
2018-06-27T17:30:53.702Z,6.80
2018-06-27T17:33:22.293Z,5.87
2018-06-27T17:35:50.770Z,6.53
2018-06-27T17:38:19.317Z,6.90
2018-06-27T17:40:47.882Z,7.70
2018-06-27T17:43:16.379Z,7.27
2018-06-27T17:45:44.830Z,8.20
2018-06-27T17:48:13.373Z,8.30
2018-06-27T17:50:41.888Z,7.87
2018-06-27T17:53:10.422Z,8.50
2018-06-27T17:55:38.909Z,8.17
2018-06-27T17:58:07.345Z,9.90
2018-06-27T18:00:36.004Z,8.33
2018-06-27T18:03:04.686Z,8.60
2018-06-27T18:05:33.230Z,8.33
2018-06-27T18:08:01.738Z,9.60
2018-06-27T18:10:30.209Z,9.90
2018-06-27T18:12:58.858Z,8.70
2018-06-27T18:15:27.369Z,8.20
2018-06-27T18:17:55.845Z,8.70
2018-06-27T18:20:24.489Z,8.83
2018-06-27T18:22:52.952Z,9.33
2018-06-27T18:25:21.422Z,9.43
2018-06-27T18:27:49.953Z,8.13
2018-06-27T18:30:18.460Z,8.23
2018-06-27T18:32:46.958Z,9.17
2018-06-27T18:35:15.432Z,9.40
2018-06-27T18:37:44.159Z,9.37
2018-06-27T18:40:12.698Z,8.40
2018-06-27T18:42:41.191Z,8.80
2018-06-27T18:45:09.954Z,7.60
2018-06-27T18:47:38.557Z,8.30
2018-06-27T18:50:07.073Z,8.50
2018-06-27T18:52:35.544Z,9.23
2018-06-27T18:55:04.120Z,8.23
2018-06-27T18:57:32.661Z,8.50
2018-06-27T19:00:01.126Z,8.03
2018-06-27T19:02:29.777Z,8.27
2018-06-27T19:04:58.429Z,8.27
2018-06-27T19:07:26.981Z,7.70
2018-06-27T19:09:55.471Z,7.40
2018-06-27T19:12:24.153Z,7.50
2018-06-27T19:14:52.669Z,8.43
2018-06-27T19:17:21.207Z,7.60
2018-06-27T19:19:49.777Z,8.00
2018-06-27T19:22:18.261Z,8.77
2018-06-27T19:24:46.944Z,7.80
2018-06-27T19:27:15.493Z,7.90
2018-06-27T19:29:44.046Z,9.77
2018-06-27T19:32:12.609Z,8.43
2018-06-27T19:34:41.102Z,8.77
2018-06-27T19:37:09.565Z,8.60
2018-06-27T19:39:38.043Z,8.10
2018-06-27T19:42:06.576Z,8.60
2018-06-27T19:44:35.104Z,7.80
2018-06-27T19:47:03.647Z,7.93
2018-06-27T19:49:32.216Z,7.73
2018-06-27T19:52:00.736Z,8.50
2018-06-27T19:54:29.199Z,8.87
2018-06-27T19:56:57.885Z,8.10
2018-06-27T19:59:26.350Z,8.13
2018-06-27T20:01:54.805Z,9.23
2018-06-27T20:04:23.296Z,8.50
2018-06-27T20:06:51.752Z,8.70
2018-06-27T20:09:20.290Z,8.73
2018-06-27T20:11:48.749Z,9.07
2018-06-27T20:14:17.299Z,8.57
2018-06-27T20:16:45.707Z,8.33
2018-06-27T20:19:14.420Z,7.90
2018-06-27T20:21:42.823Z,8.70
2018-06-27T20:24:11.261Z,8.97
2018-06-27T20:26:39.744Z,7.70
2018-06-27T20:29:11.563Z,8.23
2018-06-27T20:31:40.041Z,7.50
2018-06-27T20:34:08.523Z,7.97
2018-06-27T20:36:37.063Z,8.23
2018-06-27T20:39:10.605Z,8.20
2018-06-27T20:41:40.206Z,9.80
2018-06-27T20:44:09.064Z,7.23
2018-06-27T20:46:37.659Z,7.80
2018-06-27T20:49:06.246Z,8.10
2018-06-27T20:51:34.712Z,9.37
2018-06-27T20:54:03.298Z,9.07
2018-06-27T20:56:31.793Z,8.77
2018-06-27T20:59:00.302Z,8.93
2018-06-27T21:01:30.968Z,8.63
2018-06-27T21:03:59.450Z,10.23
2018-06-27T21:06:27.953Z,9.60
2018-06-27T21:08:56.450Z,8.90
2018-06-27T21:11:24.980Z,9.00
2018-06-27T21:13:53.417Z,9.00
2018-06-27T21:16:22.026Z,8.57
2018-06-27T21:18:50.475Z,10.40
2018-06-27T21:21:18.961Z,9.83
2018-06-27T21:23:47.486Z,8.60
2018-06-27T21:26:20.307Z,8.17
2018-06-27T21:28:48.788Z,10.83
2018-06-27T21:31:17.262Z,9.57
2018-06-27T21:33:49.369Z,11.00
2018-06-27T21:36:18.007Z,10.33
2018-06-27T21:38:49.975Z,9.40
2018-06-27T21:41:18.450Z,9.87
2018-06-27T21:43:46.939Z,10.37
2018-06-27T21:46:15.451Z,9.73
2018-06-27T21:48:44.156Z,9.77
2018-06-27T21:51:12.761Z,9.70
2018-06-27T21:53:41.214Z,10.33
2018-06-27T21:56:09.708Z,8.97
2018-06-27T21:58:38.341Z,9.27
2018-06-27T22:01:06.887Z,9.97
2018-06-27T22:03:35.347Z,9.93
2018-06-27T22:06:09.788Z,9.57
2018-06-27T22:08:38.350Z,9.77
2018-06-27T22:11:06.882Z,10.20
2018-06-27T22:13:35.333Z,9.87
2018-06-27T22:16:03.806Z,9.43
2018-06-27T22:18:35.751Z,9.40
2018-06-27T22:21:04.262Z,10.10
2018-06-27T22:23:32.721Z,10.83
2018-06-27T22:26:01.241Z,10.73
2018-06-27T22:28:29.763Z,10.20
2018-06-27T22:30:58.245Z,11.53
2018-06-27T22:33:27.607Z,11.87
2018-06-27T22:35:56.090Z,10.93
2018-06-27T22:38:24.577Z,11.40
2018-06-27T22:40:53.037Z,11.63
2018-06-27T22:43:21.481Z,10.90
2018-06-27T22:45:50.090Z,11.13
2018-06-27T22:48:18.561Z,12.40
2018-06-27T22:50:47.079Z,12.13
2018-06-27T22:53:16.835Z,12.80
2018-06-27T22:55:45.313Z,12.13
2018-06-27T22:58:13.769Z,12.10
2018-06-27T23:00:42.242Z,11.63
2018-06-27T23:03:10.709Z,14.00
2018-06-27T23:05:39.219Z,11.40
2018-06-27T23:08:07.745Z,12.70
2018-06-27T23:10:36.333Z,11.37
2018-06-27T23:13:04.926Z,11.87
2018-06-27T23:15:34.938Z,12.90
2018-06-27T23:18:03.567Z,12.60
2018-06-27T23:20:32.118Z,11.47
2018-06-27T23:23:00.650Z,12.47
2018-06-27T23:25:29.126Z,13.70
2018-06-27T23:27:57.601Z,11.47
2018-06-27T23:30:26.106Z,13.43
2018-06-27T23:32:58.183Z,13.03
2018-06-27T23:35:26.771Z,12.57
2018-06-27T23:37:55.249Z,12.80
2018-06-27T23:40:23.709Z,12.07
2018-06-27T23:42:52.200Z,12.57
2018-06-27T23:45:22.248Z,12.80
2018-06-27T23:47:50.717Z,13.07
2018-06-27T23:50:19.198Z,13.20
2018-06-27T23:52:49.022Z,13.67
2018-06-27T23:55:17.616Z,13.80
2018-06-27T23:57:46.123Z,14.07
